Time;durP1;ratioP1;P1;durP2;ratioP2;P2;SDS_P1;SDS_P2;PMS_P1;PMS_P2;Temp;Humidity;BMP_temperature;BMP_pressure;BME280_temperature;BME280_humidity;BME280_pressure;Samples;Min_cycle;Max_cycle;Signal;HPM_P1;HPM_P2
2023/10/14 00:07:31;;;;;;;0.63;0.55;;;;;;;19.76;58.40;99678.59;15429093;28;20074;-53
2023/10/14 00:15:06;;;;;;;0.30;0.30;;;;;;;19.51;60.15;99698.84;15429426;28;20045;-52
2023/10/14 00:22:40;;;;;;;0.20;0.20;;;;;;;18.80;64.31;99683.50;15427093;28;20070;-47
2023/10/14 00:30:19;;;;;;;2.05;1.38;;;;;;;18.58;63.59;99679.34;15420723;28;20510;-54
2023/10/14 00:37:55;;;;;;;1.02;0.28;;;;;;;18.59;64.60;99661.13;15421999;28;20190;-53
2023/10/14 00:45:29;;;;;;;0.10;0.10;;;;;;;18.42;64.97;99644.47;15432243;28;20043;-53
2023/10/14 00:53:05;;;;;;;0.20;0.20;;;;;;;18.60;63.72;99647.28;15427309;28;20039;-54
2023/10/14 01:00:45;;;;;;;1.20;0.65;;;;;;;18.90;62.01;99631.69;15423887;28;20050;-56
2023/10/14 01:08:22;;;;;;;4.65;1.00;;;;;;;18.86;62.61;99620.59;15424547;28;20045;-53
2023/10/14 01:16:02;;;;;;;1.35;0.75;;;;;;;18.88;62.24;99603.97;15423448;28;20038;-60
2023/10/14 01:23:37;;;;;;;0.03;0.03;;;;;;;18.78;62.51;99583.16;15422889;28;20050;-49
2023/10/14 01:31:34;;;;;;;0.10;0.10;;;;;;;18.93;62.90;99541.38;15423380;28;20085;-49
2023/10/14 01:39:13;;;;;;;0.68;0.22;;;;;;;18.93;63.30;99533.22;15418384;28;20057;-49
2023/10/14 01:46:47;;;;;;;1.38;0.85;;;;;;;18.92;63.42;99538.94;15414804;28;20478;-52
2023/10/14 01:54:22;;;;;;;1.08;0.70;;;;;;;18.82;64.27;99518.16;15418754;28;20069;-49
2023/10/14 02:01:57;;;;;;;0.22;0.10;;;;;;;18.78;63.74;99488.03;15419317;28;20123;-51
2023/10/14 02:09:32;;;;;;;1.33;0.68;;;;;;;18.93;63.30;99459.81;15401033;28;20165;-51
2023/10/14 02:17:10;;;;;;;0.00;0.00;;;;;;;18.78;64.08;99470.91;15420768;28;20066;-55
2023/10/14 02:24:44;;;;;;;0.17;0.17;;;;;;;18.89;62.68;99466.94;15418261;28;20057;-52
2023/10/14 02:32:20;;;;;;;0.35;0.35;;;;;;;18.94;61.86;99461.41;15427857;28;20445;-51
2023/10/14 02:39:54;;;;;;;0.00;0.00;;;;;;;19.13;60.68;99447.78;15426266;28;20066;-51
2023/10/14 02:47:28;;;;;;;0.00;0.00;;;;;;;19.54;58.72;99455.22;15436911;28;20049;-53
2023/10/14 03:02:54;;;;;;;1.17;0.68;;;;;;;19.84;56.78;99432.03;15423975;28;20057;-49
2023/10/14 03:10:34;;;;;;;0.10;0.10;;;;;;;19.82;56.99;99426.91;15430930;28;20051;-51
2023/10/14 03:18:08;;;;;;;0.15;0.15;;;;;;;19.58;57.91;99424.38;15439785;28;20257;-60
2023/10/14 03:25:43;;;;;;;2.03;0.65;;;;;;;19.74;57.25;99416.72;15431580;28;20702;-51
2023/10/14 03:33:19;;;;;;;5.20;2.00;;;;;;;19.94;56.78;99406.50;15429398;28;20082;-49
2023/10/14 03:41:04;;;;;;;0.30;0.25;;;;;;;20.17;56.33;99402.72;15424466;28;20043;-51
2023/10/14 03:48:45;;;;;;;0.65;0.43;;;;;;;19.90;56.67;99386.44;15451862;28;20050;-56
2023/10/14 03:56:24;;;;;;;0.00;0.00;;;;;;;19.97;56.48;99384.13;15429257;28;20042;-53
2023/10/14 04:04:01;;;;;;;0.38;0.38;;;;;;;19.83;56.49;99356.91;15454981;23;20057;-47
2023/10/14 04:11:38;;;;;;;0.95;0.28;;;;;;;19.88;55.76;99368.50;15457407;28;20667;-50
2023/10/14 04:19:22;;;;;;;4.15;0.77;;;;;;;20.15;55.50;99366.84;15464771;28;20046;-51
2023/10/14 04:34:58;;;;;;;0.00;0.00;;;;;;;20.23;55.90;99354.38;15944363;27;20400;-51
2023/10/14 04:42:43;;;;;;;5.90;0.80;;;;;;;20.11;56.22;99354.94;15856932;22;20390;-48
2023/10/14 04:50:22;;;;;;;0.32;0.28;;;;;;;19.67;57.38;99347.44;15719839;28;20457;-46
2023/10/14 04:58:11;;;;;;;0.52;0.20;;;;;;;19.27;59.50;99396.13;15723229;28;20041;-48
2023/10/14 05:05:49;;;;;;;0.38;0.38;;;;;;;18.02;69.01;99462.69;15685938;28;20504;-50
2023/10/14 05:13:31;;;;;;;0.22;0.15;;;;;;;17.48;73.48;99495.56;15700284;28;20068;-53
2023/10/14 05:21:13;;;;;;;4.93;2.00;;;;;;;17.03;75.27;99535.53;15682865;28;20049;-50
2023/10/14 05:28:46;;;;;;;0.63;0.63;;;;;;;16.92;76.07;99556.47;15682700;28;20044;-46
2023/10/14 05:36:21;;;;;;;1.33;1.23;;;;;;;16.53;79.66;99578.06;15720042;28;20052;-54
2023/10/14 05:43:54;;;;;;;0.15;0.10;;;;;;;16.90;78.39;99601.22;15682628;28;20037;-57
2023/10/14 05:51:28;;;;;;;0.00;0.00;;;;;;;16.06;78.98;99669.47;15664152;28;20092;-51
2023/10/14 05:59:02;;;;;;;0.00;0.00;;;;;;;14.79;76.93;99744.91;15661173;28;20545;-49
2023/10/14 06:06:37;;;;;;;0.00;0.00;;;;;;;14.56;75.62;99778.53;15652329;28;20071;-49
2023/10/14 06:14:10;;;;;;;0.00;0.00;;;;;;;14.30;77.05;99804.47;15638362;28;20100;-54
2023/10/14 06:21:46;;;;;;;0.00;0.00;;;;;;;13.48;78.85;99851.41;15658107;28;20131;-53
2023/10/14 06:29:19;;;;;;;0.00;0.00;;;;;;;14.09;77.37;99876.34;15665998;28;20387;-48
2023/10/14 06:36:55;;;;;;;0.00;0.00;;;;;;;13.79;77.46;99899.22;15677833;28;20107;-45
2023/10/14 06:44:28;;;;;;;0.00;0.00;;;;;;;13.54;78.01;99920.50;15667285;28;20394;-47
2023/10/14 07:01:08;;;;;;;0.00;0.00;;;;;;;13.62;78.18;99970.47;15515719;28;20612;-47
2023/10/14 07:08:43;;;;;;;0.00;0.00;;;;;;;13.74;77.55;99961.19;15648432;28;20391;-49
2023/10/14 07:16:18;;;;;;;0.00;0.00;;;;;;;13.59;78.54;99963.69;15631888;28;20057;-46
2023/10/14 07:23:52;;;;;;;0.00;0.00;;;;;;;13.45;77.86;99997.47;15653092;28;20048;-48
2023/10/14 07:31:28;;;;;;;0.10;0.10;;;;;;;13.66;77.78;100001.25;15675041;28;20457;-50
2023/10/14 07:39:08;;;;;;;0.00;0.00;;;;;;;13.63;77.56;100009.84;15672649;28;20071;-53
2023/10/14 07:46:44;;;;;;;0.00;0.00;;;;;;;13.63;77.42;100023.34;15662825;28;20041;-51
2023/10/14 07:54:18;;;;;;;0.00;0.00;;;;;;;13.41;77.41;100042.97;15674766;28;20490;-48
2023/10/14 08:01:59;;;;;;;0.00;0.00;;;;;;;13.82;76.00;100067.84;15627957;28;20468;-48
2023/10/14 08:09:39;;;;;;;0.00;0.00;;;;;;;14.25;73.74;100074.34;15642719;28;20111;-47
2023/10/14 08:17:13;;;;;;;0.00;0.00;;;;;;;14.08;74.29;100090.59;15673084;28;20079;-46
2023/10/14 08:24:47;;;;;;;0.00;0.00;;;;;;;14.58;73.14;100099.63;15669069;28;20087;-52
2023/10/14 08:32:23;;;;;;;0.00;0.00;;;;;;;14.88;70.25;100107.28;15661382;28;20051;-48
2023/10/14 08:39:56;;;;;;;0.00;0.00;;;;;;;15.20;67.89;100120.81;15670282;28;20413;-49
2023/10/14 08:47:33;;;;;;;0.00;0.00;;;;;;;15.89;65.04;100123.59;15644886;28;20046;-50
2023/10/14 08:55:08;;;;;;;0.20;0.17;;;;;;;15.86;61.90;100134.13;15642345;28;20486;-51
2023/10/14 09:02:44;;;;;;;0.00;0.00;;;;;;;15.99;60.58;100152.59;15652073;28;20064;-50
2023/10/14 09:10:20;;;;;;;0.10;0.10;;;;;;;16.58;59.82;100183.03;15639901;28;20050;-49
2023/10/14 09:18:00;;;;;;;0.05;0.05;;;;;;;16.16;59.27;100203.91;15649019;28;20048;-51
2023/10/14 09:25:41;;;;;;;0.95;0.60;;;;;;;16.41;57.49;100205.97;15670838;28;20103;-48
2023/10/14 09:33:19;;;;;;;1.65;0.80;;;;;;;17.00;54.91;100211.16;15673188;28;20049;-48
2023/10/14 09:40:54;;;;;;;0.00;0.00;;;;;;;16.81;53.53;100230.59;15661187;28;20048;-52
2023/10/14 09:48:31;;;;;;;0.00;0.00;;;;;;;16.78;55.89;100247.38;15642344;28;20045;-52
2023/10/14 09:56:07;;;;;;;0.65;0.22;;;;;;;16.96;53.42;100246.13;15612540;28;20311;-49
2023/10/14 10:03:48;;;;;;;0.40;0.30;;;;;;;16.93;52.06;100252.09;15658315;28;20476;-49
2023/10/14 10:11:24;;;;;;;0.00;0.00;;;;;;;17.08;50.77;100279.25;15680290;28;20065;-50
2023/10/14 10:19:01;;;;;;;0.00;0.00;;;;;;;16.30;51.80;100238.41;15680703;28;20448;-52
2023/10/14 10:26:57;;;;;;;0.00;0.00;;;;;;;15.70;51.95;100282.00;15674698;28;20076;-53
2023/10/14 10:34:33;;;;;;;0.00;0.00;;;;;;;15.50;52.03;100293.41;15671660;28;20054;-50
2023/10/14 10:42:10;;;;;;;0.00;0.00;;;;;;;15.73;51.54;100303.16;15674685;28;20489;-53
2023/10/14 10:49:56;;;;;;;2.20;1.10;;;;;;;15.83;51.28;100308.66;15651493;28;20044;-52
2023/10/14 10:57:32;;;;;;;0.00;0.00;;;;;;;16.44;50.95;100322.75;15671323;28;20041;-51
2023/10/14 11:05:09;;;;;;;0.00;0.00;;;;;;;16.50;50.00;100316.28;15669124;28;20467;-54
2023/10/14 11:12:43;;;;;;;0.00;0.00;;;;;;;17.40;47.49;100320.91;15670300;28;20079;-50
2023/10/14 11:20:18;;;;;;;0.20;0.15;;;;;;;16.68;48.20;100330.50;15664535;28;20068;-54
2023/10/14 11:27:54;;;;;;;2.65;1.10;;;;;;;16.80;48.58;100345.53;15640327;28;20170;-50
2023/10/14 11:35:29;;;;;;;0.00;0.00;;;;;;;16.44;47.71;100344.41;15636337;28;20502;-52
2023/10/14 11:43:07;;;;;;;0.00;0.00;;;;;;;16.40;47.61;100356.84;15657067;28;20087;-51
2023/10/14 11:50:41;;;;;;;0.00;0.00;;;;;;;17.33;46.23;100354.50;15652617;28;20049;-54
2023/10/14 11:58:15;;;;;;;2.92;1.25;;;;;;;17.65;45.85;100356.25;15649839;28;20056;-50
2023/10/14 12:05:51;;;;;;;1.95;0.20;;;;;;;16.89;46.69;100377.56;15664967;28;20048;-50
2023/10/14 12:13:25;;;;;;;0.00;0.00;;;;;;;15.85;49.28;100397.72;15647086;28;20418;-49
2023/10/14 12:20:59;;;;;;;0.00;0.00;;;;;;;16.77;45.07;100361.50;15656783;28;20076;-51
2023/10/14 12:28:33;;;;;;;1.23;0.55;;;;;;;16.39;47.70;100414.00;15642051;28;20079;-49
2023/10/14 12:36:10;;;;;;;0.75;0.75;;;;;;;17.13;44.32;100408.63;15663998;28;20114;-53
2023/10/14 12:43:44;;;;;;;0.20;0.20;;;;;;;16.34;43.47;100420.16;15661089;28;20504;-51
2023/10/14 12:51:25;;;;;;;0.00;0.00;;;;;;;16.89;44.20;100419.06;15675940;28;20041;-51
2023/10/14 12:58:58;;;;;;;0.00;0.00;;;;;;;17.67;43.28;100411.06;15659984;28;20124;-50
2023/10/14 13:06:33;;;;;;;0.00;0.00;;;;;;;17.01;45.17;100422.38;15624817;28;20041;-51
2023/10/14 13:14:07;;;;;;;0.00;0.00;;;;;;;16.30;46.06;100422.56;15664339;28;20045;-50
2023/10/14 13:21:42;;;;;;;1.38;0.65;;;;;;;17.25;45.28;100424.69;15670048;28;20045;-50
2023/10/14 13:29:16;;;;;;;0.00;0.00;;;;;;;16.53;46.47;100432.28;15678047;28;20049;-50
2023/10/14 13:36:52;;;;;;;1.55;0.55;;;;;;;16.44;46.76;100439.22;15647353;28;20136;-50
2023/10/14 13:44:26;;;;;;;0.13;0.13;;;;;;;16.26;47.26;100448.53;15669405;28;20433;-49
2023/10/14 13:52:02;;;;;;;0.00;0.00;;;;;;;15.98;46.91;100444.16;15649827;28;20090;-49
2023/10/14 13:59:38;;;;;;;0.00;0.00;;;;;;;15.84;46.20;100452.91;15671056;28;20045;-51
2023/10/14 14:16:26;;;;;;;0.00;0.00;;;;;;;15.51;46.42;100466.25;15455914;28;20106;-52
2023/10/14 14:24:01;;;;;;;;;;;;;;;15.54;46.97;100470.38;15673676;28;20459;-49
2023/10/14 14:31:34;;;;;;;0.00;0.00;;;;;;;15.36;47.24;100473.34;15675901;28;19931;-50
2023/10/14 14:39:10;;;;;;;0.00;0.00;;;;;;;15.13;47.77;100469.75;15675210;28;20449;-52
2023/10/14 14:46:44;;;;;;;0.00;0.00;;;;;;;14.76;47.59;100474.84;15664544;28;20041;-52
2023/10/14 14:54:18;;;;;;;;;;;;;;;15.20;47.44;100481.25;15672779;28;20469;-49
2023/10/14 15:01:52;;;;;;;0.00;0.00;;;;;;;14.89;48.55;100476.41;15655935;28;19928;-49
2023/10/14 15:09:27;;;;;;;0.00;0.00;;;;;;;15.01;48.02;100477.97;15656433;28;20030;-49
2023/10/14 15:17:00;;;;;;;0.00;0.00;;;;;;;14.75;47.62;100482.13;15660123;28;20076;-53
2023/10/14 15:24:35;;;;;;;0.00;0.00;;;;;;;14.76;50.74;100485.66;15675416;28;20041;-53
2023/10/14 15:32:09;;;;;;;0.00;0.00;;;;;;;15.04;52.54;100492.88;15674446;28;20064;-53
2023/10/14 15:39:43;;;;;;;;;;;;;;;14.75;56.06;100519.94;15644884;28;20045;-51
2023/10/14 15:47:17;;;;;;;0.95;0.75;;;;;;;14.37;61.06;100519.75;15608767;28;19952;-49
2023/10/14 15:54:52;;;;;;;0.15;0.15;;;;;;;14.46;59.84;100518.31;15613247;28;20048;-50
2023/10/14 16:02:28;;;;;;;0.00;0.00;;;;;;;14.33;61.69;100532.09;15611752;28;20045;-49
2023/10/14 16:10:02;;;;;;;0.00;0.00;;;;;;;13.43;63.63;100566.56;15611529;28;20034;-51
2023/10/14 16:17:36;;;;;;;0.20;0.17;;;;;;;12.04;63.54;100595.38;15612064;28;20041;-51
2023/10/14 16:25:11;;;;;;;0.10;0.10;;;;;;;11.72;62.50;100621.53;15612253;28;20089;-51
2023/10/14 16:32:48;;;;;;;0.00;0.00;;;;;;;11.67;65.55;100632.94;15611618;28;20437;-47
2023/10/14 16:40:28;;;;;;;1.35;0.75;;;;;;;11.72;67.11;100637.66;15607517;28;20057;-56
2023/10/14 16:48:07;;;;;;;0.00;0.00;;;;;;;11.90;65.09;100642.28;15670198;28;20099;-48
2023/10/14 16:55:40;;;;;;;0.00;0.00;;;;;;;11.38;65.51;100661.28;15669679;28;20464;-48
2023/10/14 17:03:15;;;;;;;;;;;;;;;11.99;63.63;100647.16;15670219;28;20448;-52
2023/10/14 17:10:48;;;;;;;0.00;0.00;;;;;;;11.59;64.64;100649.34;15670296;28;19928;-49
2023/10/14 17:18:23;;;;;;;0.00;0.00;;;;;;;11.94;63.60;100646.19;15673696;28;20071;-50
2023/10/14 17:25:59;;;;;;;0.00;0.00;;;;;;;11.75;64.78;100640.75;15671506;28;20526;-48
2023/10/14 17:33:34;;;;;;;0.77;0.47;;;;;;;11.72;63.75;100651.09;15672441;28;20064;-49
2023/10/14 17:41:15;;;;;;;0.10;0.10;;;;;;;11.49;64.34;100657.06;15688073;28;20517;-48
2023/10/14 17:48:51;;;;;;;0.00;0.00;;;;;;;11.94;61.43;100668.53;15746146;28;20695;-48
2023/10/14 17:56:26;;;;;;;0.70;0.45;;;;;;;11.82;61.93;100672.97;15745484;28;20037;-49
2023/10/14 18:04:03;;;;;;;0.00;0.00;;;;;;;11.41;63.68;100678.84;15745466;28;20097;-50
2023/10/14 18:11:37;;;;;;;0.05;0.05;;;;;;;11.43;64.13;100679.47;15752141;28;20123;-50
2023/10/14 18:19:12;;;;;;;1.17;0.98;;;;;;;11.57;63.91;100697.13;15741648;28;20040;-47
2023/10/14 18:26:47;;;;;;;0.00;0.00;;;;;;;11.27;64.28;100698.75;15744910;28;20054;-49
2023/10/14 18:34:23;;;;;;;;;;;;;;;11.69;63.54;100706.13;15744472;28;20040;-48
2023/10/14 18:41:56;;;;;;;0.00;0.00;;;;;;;11.49;64.91;100714.34;15725486;28;19928;-51
2023/10/14 18:49:30;;;;;;;3.05;0.88;;;;;;;11.26;65.75;100721.31;15679743;28;20047;-49
2023/10/14 18:57:04;;;;;;;0.00;0.00;;;;;;;10.71;68.25;100724.44;15682028;28;20096;-48
2023/10/14 19:04:40;;;;;;;0.13;0.13;;;;;;;11.00;67.56;100723.06;15678874;28;20136;-51
2023/10/14 19:12:13;;;;;;;0.00;0.00;;;;;;;10.82;67.75;100728.31;15677979;28;20037;-50
2023/10/14 19:19:48;;;;;;;0.10;0.10;;;;;;;10.84;66.60;100737.00;15674477;28;20592;-49
2023/10/14 19:27:21;;;;;;;0.00;0.00;;;;;;;11.27;66.05;100737.19;15676762;28;20055;-50
2023/10/14 19:34:55;;;;;;;0.00;0.00;;;;;;;11.08;65.55;100738.94;15672235;28;20096;-49
2023/10/14 19:42:30;;;;;;;0.00;0.00;;;;;;;10.76;65.98;100750.63;15694790;28;20048;-48
2023/10/14 19:50:08;;;;;;;0.00;0.00;;;;;;;10.59;66.31;100769.91;15722576;28;20353;-47
2023/10/14 19:57:41;;;;;;;0.00;0.00;;;;;;;10.72;65.61;100772.56;15740943;28;20493;-48
2023/10/14 20:05:16;;;;;;;0.00;0.00;;;;;;;10.56;65.17;100773.00;15738701;28;20625;-48
2023/10/14 20:12:52;;;;;;;0.00;0.00;;;;;;;10.76;64.23;100772.13;15741012;28;20036;-53
2023/10/14 20:20:26;;;;;;;0.00;0.00;;;;;;;10.89;63.75;100778.28;15738819;28;20450;-49
2023/10/14 20:28:00;;;;;;;0.00;0.00;;;;;;;11.08;63.42;100791.84;15738489;28;20416;-48
2023/10/14 20:35:35;;;;;;;6.78;0.43;;;;;;;10.73;64.01;100784.13;15719167;28;20041;-50
2023/10/14 20:43:09;;;;;;;0.00;0.00;;;;;;;10.30;65.18;100779.19;15729787;28;20044;-48
2023/10/14 20:50:47;;;;;;;0.00;0.00;;;;;;;10.55;63.44;100802.72;15691616;28;20048;-51
2023/10/14 20:58:21;;;;;;;0.00;0.00;;;;;;;10.77;62.91;100814.03;15732513;28;20401;-50
2023/10/14 21:05:56;;;;;;;;;;;;;;;10.21;62.59;100815.28;15728405;28;20206;-49
2023/10/14 21:13:29;;;;;;;0.00;0.00;;;;;;;10.23;62.56;100818.59;15728476;28;19939;-50
2023/10/14 21:21:09;;;;;;;0.00;0.00;;;;;;;10.21;61.81;100813.44;15749015;28;20032;-52
2023/10/14 21:28:44;;;;;;;0.05;0.05;;;;;;;9.86;61.43;100775.25;15746997;28;20051;-52
2023/10/14 21:36:20;;;;;;;0.00;0.00;;;;;;;10.25;61.36;100802.31;15743116;28;20086;-51
2023/10/14 21:43:56;;;;;;;0.55;0.43;;;;;;;9.67;62.25;100773.38;15750248;28;20083;-54
2023/10/14 21:51:32;;;;;;;0.00;0.00;;;;;;;9.90;62.41;100808.66;15744942;28;20044;-51
2023/10/14 21:59:06;;;;;;;0.00;0.00;;;;;;;9.28;64.32;100760.69;15745501;28;20634;-51
2023/10/14 22:06:47;;;;;;;0.00;0.00;;;;;;;9.79;63.98;100805.75;15743475;28;20059;-49
2023/10/14 22:14:23;;;;;;;0.00;0.00;;;;;;;9.61;63.88;100804.50;15745386;28;20112;-53
2023/10/14 22:22:01;;;;;;;4.90;0.40;;;;;;;9.45;64.72;100810.19;15726103;28;20044;-51
2023/10/14 22:29:34;;;;;;;0.10;0.10;;;;;;;9.43;64.50;100799.69;15714978;28;20181;-49
2023/10/14 22:37:09;;;;;;;0.00;0.00;;;;;;;9.27;64.89;100802.72;15718369;28;20431;-49
2023/10/14 22:44:45;;;;;;;0.00;0.00;;;;;;;9.78;63.47;100812.97;15801606;22;20403;-47
2023/10/14 22:52:19;;;;;;;0.15;0.15;;;;;;;9.18;64.69;100817.28;15830682;28;20444;-48
2023/10/14 22:59:54;;;;;;;13.05;0.45;;;;;;;9.14;65.18;100816.91;15808939;28;20066;-47
2023/10/14 23:07:34;;;;;;;0.20;0.20;;;;;;;8.78;66.23;100816.28;15822476;28;20086;-50
2023/10/14 23:15:12;;;;;;;0.70;0.40;;;;;;;8.92;65.60;100816.16;15805563;28;20032;-50
2023/10/14 23:22:49;;;;;;;0.00;0.00;;;;;;;8.79;65.67;100805.38;15817297;28;20484;-46
2023/10/14 23:30:23;;;;;;;0.00;0.00;;;;;;;8.74;65.84;100812.34;15804746;28;20048;-50
2023/10/14 23:37:59;;;;;;;0.15;0.15;;;;;;;8.68;65.60;100806.75;15819142;28;20041;-53
2023/10/14 23:45:33;;;;;;;1.55;1.38;;;;;;;8.78;65.55;100813.59;15799944;28;20047;-53
2023/10/14 23:53:07;;;;;;;;;;;;;;;8.56;66.16;100823.53;15816833;28;20519;-47
